createdAt,value
2022-10-11T00:03:00.834Z,10.90
2022-10-11T00:07:03.702Z,12.88
2022-10-11T00:11:08.988Z,10.43
2022-10-11T00:15:14.853Z,13.40
2022-10-11T00:19:17.925Z,9.32
2022-10-11T00:23:20.890Z,9.82
2022-10-11T00:27:25.344Z,11.27
2022-10-11T00:31:33.288Z,7.70
2022-10-11T00:35:41.410Z,6.55
2022-10-11T00:39:44.372Z,9.85
2022-10-11T00:43:48.898Z,12.10
2022-10-11T00:47:51.713Z,9.32
2022-10-11T00:51:57.979Z,8.07
2022-10-11T00:56:05.157Z,9.70
2022-10-11T01:00:12.601Z,12.02
2022-10-11T01:04:15.834Z,8.48
2022-10-11T01:08:19.529Z,9.45
2022-10-11T01:12:25.606Z,12.02
2022-10-11T01:16:34.591Z,9.82
2022-10-11T01:20:52.489Z,12.13
2022-10-11T01:25:14.260Z,8.15
2022-10-11T01:29:26.087Z,11.73
2022-10-11T01:33:37.305Z,9.68
2022-10-11T01:37:44.999Z,11.48
2022-10-11T01:41:51.405Z,11.38
2022-10-11T01:45:57.211Z,11.27
2022-10-11T01:50:02.869Z,14.50
2022-10-11T01:54:39.414Z,14.30
2022-10-11T01:59:13.554Z,14.77
2022-10-11T02:03:29.925Z,10.32
2022-10-11T02:07:41.799Z,8.57
2022-10-11T02:11:44.697Z,10.20
2022-10-11T02:15:50.670Z,9.35
2022-10-11T02:19:57.365Z,15.18
2022-10-11T02:24:05.296Z,15.30
2022-10-11T02:28:12.139Z,12.15
2022-10-11T02:32:16.694Z,12.25
2022-10-11T02:36:25.078Z,11.55
2022-10-11T02:40:33.215Z,8.52
2022-10-11T02:44:41.313Z,10.02
2022-10-11T02:48:44.146Z,5.47
2022-10-11T02:52:46.990Z,11.40
2022-10-11T02:56:51.207Z,9.13
2022-10-11T03:00:54.069Z,10.07
2022-10-11T03:04:57.615Z,8.10
2022-10-11T03:09:00.438Z,8.57
2022-10-11T03:13:04.950Z,10.48
2022-10-11T03:17:31.020Z,12.38
2022-10-11T03:21:30.631Z,13.18
2022-10-11T03:25:33.693Z,21.42
2022-10-11T03:29:37.863Z,19.45
2022-10-11T03:33:40.813Z,25.33
2022-10-11T03:37:43.609Z,26.88
2022-10-11T03:41:46.579Z,30.85
2022-10-11T03:45:50.758Z,28.13
2022-10-11T03:49:53.604Z,31.77
2022-10-11T03:53:56.416Z,23.73
2022-10-11T03:57:59.253Z,25.77
2022-10-11T04:02:04.610Z,26.25
2022-10-11T04:06:08.710Z,27.30
2022-10-11T04:10:11.703Z,33.25
2022-10-11T04:14:14.533Z,29.38
2022-10-11T04:18:18.722Z,27.08
2022-10-11T04:22:21.519Z,33.78
2022-10-11T04:26:24.481Z,31.27
2022-10-11T04:30:27.312Z,33.00
2022-10-11T04:34:31.559Z,33.22
2022-10-11T04:38:34.502Z,36.25
2022-10-11T04:42:37.469Z,40.53
2022-10-11T04:46:40.337Z,32.70
2022-10-11T04:50:46.460Z,33.03
2022-10-11T04:54:52.373Z,35.70
2022-10-11T04:58:55.169Z,33.38
2022-10-11T05:02:58.023Z,33.67
2022-10-11T05:07:02.270Z,38.95
2022-10-11T05:11:07.407Z,30.55
2022-10-11T05:15:11.195Z,32.67
2022-10-11T05:19:14.012Z,32.00
2022-10-11T05:23:18.172Z,30.35
2022-10-11T05:27:21.146Z,28.42
2022-10-11T05:31:24.229Z,28.98
2022-10-11T05:35:27.132Z,30.33
2022-10-11T05:39:32.265Z,26.83
2022-10-11T05:43:35.203Z,30.55
2022-10-11T05:47:38.143Z,29.27
2022-10-11T05:51:40.960Z,33.30
2022-10-11T05:55:45.550Z,29.63
2022-10-11T05:59:48.374Z,30.33
2022-10-11T06:03:51.316Z,40.65
2022-10-11T06:07:54.276Z,31.52
2022-10-11T06:11:58.699Z,31.92
2022-10-11T06:16:04.364Z,34.67
2022-10-11T06:20:08.480Z,33.05
2022-10-11T06:24:12.223Z,35.97
2022-10-11T06:28:16.484Z,35.53
2022-10-11T06:32:19.329Z,40.22
2022-10-11T06:36:22.342Z,33.40
2022-10-11T06:40:25.544Z,34.95
2022-10-11T06:44:30.245Z,41.35
2022-10-11T06:48:33.206Z,35.97
2022-10-11T06:52:36.069Z,36.17
2022-10-11T06:56:39.014Z,33.45
2022-10-11T07:00:43.317Z,31.75
2022-10-11T07:04:46.215Z,45.67
2022-10-11T07:08:49.974Z,33.08
2022-10-11T07:12:52.838Z,34.83
2022-10-11T07:16:57.273Z,40.92
2022-10-11T07:21:03.302Z,35.70
2022-10-11T07:25:07.130Z,35.25
2022-10-11T07:29:11.747Z,34.53
2022-10-11T07:33:15.923Z,30.42
2022-10-11T07:37:18.743Z,35.08
2022-10-11T07:41:21.900Z,33.80
2022-10-11T07:45:25.375Z,38.25
2022-10-11T07:49:29.591Z,35.20
2022-10-11T07:53:32.445Z,31.50
2022-10-11T07:57:35.290Z,31.40
2022-10-11T08:01:38.175Z,24.70
2022-10-11T08:05:42.401Z,26.73
2022-10-11T08:09:45.198Z,25.58
2022-10-11T08:14:08.445Z,26.20
2022-10-11T08:18:11.226Z,24.75
2022-10-11T08:22:15.513Z,26.35
2022-10-11T08:26:18.393Z,28.20
2022-10-11T08:30:21.320Z,26.25
2022-10-11T08:34:24.149Z,30.17
2022-10-11T08:38:28.297Z,30.88
2022-10-11T08:42:36.481Z,32.70
2022-10-11T08:46:42.998Z,37.10
2022-10-11T08:50:48.695Z,37.97
2022-10-11T08:54:56.869Z,38.08
2022-10-11T08:59:05.547Z,32.17
2022-10-11T09:03:22.689Z,28.77
2022-10-11T09:07:38.452Z,26.27
2022-10-11T09:11:53.544Z,25.17
2022-10-11T09:16:05.258Z,30.30
2022-10-11T09:20:35.749Z,27.95
2022-10-11T09:24:53.529Z,26.55
2022-10-11T09:29:02.865Z,22.52
2022-10-11T09:33:14.504Z,26.10
2022-10-11T09:37:25.483Z,22.20
2022-10-11T09:41:37.421Z,22.90
2022-10-11T09:45:49.140Z,25.30
2022-10-11T09:49:57.587Z,26.88
2022-10-11T09:54:02.868Z,20.27
2022-10-11T09:58:09.499Z,23.05
2022-10-11T10:02:21.219Z,23.65
2022-10-11T10:06:27.062Z,26.23
2022-10-11T10:10:35.081Z,21.92
2022-10-11T10:14:37.957Z,22.88
2022-10-11T10:18:49.214Z,22.67
2022-10-11T10:22:52.898Z,21.17
2022-10-11T10:27:18.054Z,20.55
2022-10-11T10:31:23.801Z,21.65
2022-10-11T10:35:32.397Z,19.15
2022-10-11T10:39:41.734Z,19.17
2022-10-11T10:43:52.589Z,22.95
2022-10-11T10:48:08.868Z,18.38
2022-10-11T10:52:42.811Z,14.93
2022-10-11T10:56:52.963Z,18.50
2022-10-11T11:01:02.916Z,18.17
2022-10-11T11:05:16.277Z,17.48
2022-10-11T11:09:39.090Z,16.17
2022-10-11T11:13:48.497Z,15.60
2022-10-11T11:18:05.173Z,22.10
2022-10-11T11:22:15.714Z,14.98
2022-10-11T11:26:26.311Z,13.35
2022-10-11T11:30:37.264Z,18.20
2022-10-11T11:34:44.402Z,16.17
2022-10-11T11:38:52.248Z,18.55
2022-10-11T11:42:58.925Z,11.73
2022-10-11T11:47:04.928Z,13.57
2022-10-11T11:51:13.020Z,9.63
2022-10-11T11:55:22.170Z,14.80
2022-10-11T11:59:32.595Z,12.90
2022-10-11T12:03:41.850Z,9.45
2022-10-11T12:07:55.086Z,12.75
2022-10-11T12:12:00.207Z,10.25
2022-10-11T12:16:12.446Z,11.75
2022-10-11T12:20:22.062Z,7.97
2022-10-11T12:24:25.761Z,11.73
2022-10-11T12:29:03.626Z,12.20
2022-10-11T12:33:15.950Z,8.35
2022-10-11T12:37:51.281Z,12.02
2022-10-11T12:42:06.904Z,10.15
2022-10-11T12:46:40.301Z,6.65
2022-10-11T12:51:02.911Z,9.60
2022-10-11T12:55:30.424Z,9.05
2022-10-11T12:59:33.801Z,8.32
2022-10-11T13:03:40.186Z,10.00
2022-10-11T13:07:45.109Z,5.85
2022-10-11T13:11:52.001Z,7.72
2022-10-11T13:15:57.753Z,12.30
2022-10-11T13:20:02.414Z,9.25
2022-10-11T13:24:13.443Z,10.10
2022-10-11T13:28:17.126Z,11.52
2022-10-11T13:32:23.726Z,12.95
2022-10-11T13:36:28.291Z,9.65
2022-10-11T13:40:34.623Z,7.57
2022-10-11T13:44:38.764Z,10.00
2022-10-11T13:48:41.799Z,9.40
2022-10-11T13:52:59.892Z,9.18
2022-10-11T13:57:04.425Z,7.72
2022-10-11T14:01:18.054Z,12.80
2022-10-11T14:05:29.312Z,10.13
2022-10-11T14:09:34.788Z,11.07
2022-10-11T14:13:41.376Z,11.13
2022-10-11T14:17:47.111Z,11.00
2022-10-11T14:21:54.869Z,10.93
2022-10-11T14:25:57.704Z,9.63
2022-10-11T14:30:24.510Z,8.18
2022-10-11T14:34:31.911Z,9.77
2022-10-11T14:38:34.702Z,7.90
2022-10-11T14:42:37.543Z,6.72
2022-10-11T14:46:42.637Z,6.65
2022-10-11T14:50:50.111Z,7.18
2022-10-11T14:54:52.934Z,6.13
2022-10-11T14:58:58.670Z,6.15
2022-10-11T15:03:03.719Z,8.38
2022-10-11T15:07:06.670Z,11.63
2022-10-11T15:11:11.632Z,6.30
2022-10-11T15:15:19.733Z,8.15
2022-10-11T15:19:25.665Z,8.30
2022-10-11T15:23:28.579Z,12.98
2022-10-11T15:27:31.445Z,8.85
2022-10-11T15:31:34.360Z,8.00
2022-10-11T15:35:38.750Z,8.75
2022-10-11T15:39:44.621Z,8.07
2022-10-11T15:43:49.241Z,7.32
2022-10-11T15:47:52.714Z,6.88
2022-10-11T15:51:56.967Z,7.38
2022-10-11T15:56:03.261Z,7.53
2022-10-11T16:00:07.261Z,9.90
2022-10-11T16:04:14.643Z,9.73
2022-10-11T16:08:18.781Z,8.95
2022-10-11T16:12:21.733Z,10.45
2022-10-11T16:16:24.617Z,7.93
2022-10-11T16:20:27.451Z,6.07
2022-10-11T16:24:31.679Z,9.48
2022-10-11T16:28:35.584Z,6.03
2022-10-11T16:32:39.235Z,11.45
2022-10-11T16:36:42.786Z,8.65
2022-10-11T16:40:48.813Z,11.85
2022-10-11T16:44:52.035Z,9.48
2022-10-11T16:48:56.219Z,11.93
2022-10-11T16:52:59.239Z,11.32
2022-10-11T16:57:03.549Z,9.75
2022-10-11T17:01:10.548Z,11.13
2022-10-11T17:05:13.474Z,10.20
2022-10-11T17:13:47.978Z,13.25
2022-10-11T17:17:50.783Z,14.57
2022-10-11T17:21:53.649Z,13.45
2022-10-11T17:25:56.790Z,9.82
2022-10-11T17:30:00.979Z,16.80
2022-10-11T17:34:03.821Z,14.70
2022-10-11T17:38:06.709Z,14.32
2022-10-11T17:42:09.598Z,13.32
2022-10-11T17:46:15.796Z,14.23
2022-10-11T17:50:18.950Z,11.98
2022-10-11T17:54:21.830Z,11.68
2022-10-11T17:58:26.733Z,11.35
2022-10-11T18:02:32.093Z,11.20
2022-10-11T18:06:40.447Z,12.95
2022-10-11T18:10:47.451Z,10.38
2022-10-11T18:14:51.242Z,11.38
2022-10-11T18:18:57.550Z,18.70
2022-10-11T18:23:00.784Z,19.20
2022-10-11T18:27:03.769Z,15.13
2022-10-11T18:31:12.559Z,14.60
2022-10-11T18:35:17.801Z,16.50
2022-10-11T18:39:21.784Z,16.30
2022-10-11T18:43:24.610Z,14.85
2022-10-11T18:47:27.614Z,18.40
2022-10-11T18:51:33.835Z,15.18
2022-10-11T18:55:37.321Z,14.80
2022-10-11T18:59:40.205Z,12.48
2022-10-11T19:03:45.045Z,12.75
2022-10-11T19:07:50.695Z,12.80
2022-10-11T19:11:56.226Z,14.82
2022-10-11T19:16:06.026Z,10.43
2022-10-11T19:20:12.721Z,14.88
2022-10-11T19:24:17.185Z,13.32
2022-10-11T19:28:20.114Z,13.32
2022-10-11T19:32:22.946Z,14.23
2022-10-11T19:36:26.077Z,17.40
2022-10-11T19:40:33.082Z,15.35
2022-10-11T19:44:39.820Z,17.13
2022-10-11T19:48:44.588Z,13.77
2022-10-11T19:52:47.431Z,17.25
2022-10-11T19:56:51.745Z,18.17
2022-10-11T20:01:01.358Z,20.40
2022-10-11T20:05:04.610Z,15.32
2022-10-11T20:09:28.425Z,14.25
2022-10-11T20:13:35.051Z,12.95
2022-10-11T20:17:50.275Z,14.98
2022-10-11T20:21:53.181Z,16.85
2022-10-11T20:26:00.470Z,17.35
2022-10-11T20:30:05.449Z,14.55
2022-10-11T20:34:08.574Z,13.95
2022-10-11T20:38:11.393Z,14.68
2022-10-11T20:42:15.325Z,12.30
2022-10-11T20:46:21.046Z,13.90
2022-10-11T20:50:23.891Z,16.95
2022-10-11T20:54:28.867Z,13.38
2022-10-11T20:58:32.165Z,11.13
2022-10-11T21:02:36.801Z,12.70
2022-10-11T21:06:40.636Z,14.35
2022-10-11T21:10:52.437Z,13.25
2022-10-11T21:14:55.336Z,14.00
2022-10-11T21:19:01.793Z,14.00
2022-10-11T21:23:04.631Z,12.15
2022-10-11T21:27:07.621Z,16.95
2022-10-11T21:31:12.497Z,13.25
2022-10-11T21:35:16.823Z,12.63
2022-10-11T21:39:19.739Z,11.98
2022-10-11T21:43:22.555Z,10.82
2022-10-11T21:47:25.632Z,15.70
2022-10-11T21:51:31.974Z,14.15
2022-10-11T21:55:34.769Z,15.75
2022-10-11T21:59:37.619Z,16.48
2022-10-11T22:03:40.482Z,11.77
2022-10-11T22:07:45.393Z,14.45
2022-10-11T22:11:48.229Z,12.50
2022-10-11T22:15:51.051Z,12.43
2022-10-11T22:19:53.841Z,15.40
2022-10-11T22:23:58.030Z,14.35
2022-10-11T22:28:00.863Z,15.70
2022-10-11T22:32:03.699Z,13.48
2022-10-11T22:36:08.914Z,13.40
2022-10-11T22:40:13.630Z,11.43
2022-10-11T22:44:16.663Z,10.93
2022-10-11T22:48:19.470Z,15.18
2022-10-11T22:52:22.283Z,11.40
2022-10-11T22:56:26.501Z,10.75
2022-10-11T23:00:29.477Z,13.15
2022-10-11T23:04:32.286Z,13.13
2022-10-11T23:08:35.213Z,13.02
2022-10-11T23:12:39.406Z,10.52
2022-10-11T23:16:42.208Z,13.48
2022-10-11T23:20:45.231Z,13.23
2022-10-11T23:24:48.111Z,17.57
2022-10-11T23:28:58.188Z,13.38
2022-10-11T23:33:03.246Z,10.93
2022-10-11T23:37:06.599Z,11.23
2022-10-11T23:41:09.475Z,13.15
2022-10-11T23:45:13.627Z,13.15
2022-10-11T23:49:16.894Z,10.70
2022-10-11T23:53:19.826Z,12.77
2022-10-11T23:57:22.666Z,10.20
